Time;durP1;ratioP1;P1;durP2;ratioP2;P2;SDS_P1;SDS_P2;PMS_P1;PMS_P2;Temp;Humidity;BMP_temperature;BMP_pressure;BME280_temperature;BME280_humidity;BME280_pressure;Samples;Min_cycle;Max_cycle;Signal;HPM_P1;HPM_P2
2023/09/08 00:00:49;;;;;;;11.43;3.70;;;23.50;63.60;;;;;;5016317;28;20100;-74
2023/09/08 00:03:15;;;;;;;4.95;4.03;;;23.50;63.20;;;;;;5016338;28;20030;-74
2023/09/08 00:05:42;;;;;;;6.22;4.55;;;23.40;63.60;;;;;;5014923;28;20475;-75
2023/09/08 00:08:07;;;;;;;5.75;4.30;;;23.40;64.30;;;;;;5016300;28;20017;-74
2023/09/08 00:10:33;;;;;;;5.15;3.90;;;23.40;65.10;;;;;;5016226;28;20544;-74
2023/09/08 00:12:59;;;;;;;6.78;3.92;;;23.30;65.10;;;;;;5016096;28;20033;-74
2023/09/08 00:15:24;;;;;;;5.55;4.05;;;23.40;65.20;;;;;;5015937;28;20032;-74
2023/09/08 00:17:50;;;;;;;10.43;4.40;;;23.40;64.60;;;;;;5015857;28;20030;-74
2023/09/08 00:20:16;;;;;;;6.80;4.25;;;23.30;64.60;;;;;;5015776;28;20062;-74
2023/09/08 00:22:42;;;;;;;5.82;4.00;;;23.30;64.50;;;;;;5015701;28;20026;-74
2023/09/08 00:25:08;;;;;;;12.80;4.00;;;23.30;65.00;;;;;;5016031;28;20060;-74
2023/09/08 00:27:33;;;;;;;4.72;4.10;;;23.30;65.30;;;;;;5015932;28;20032;-74
2023/09/08 00:30:01;;;;;;;6.38;3.75;;;23.20;65.50;;;;;;5015774;28;20390;-74
2023/09/08 00:32:27;;;;;;;5.28;3.97;;;23.20;65.80;;;;;;5015469;28;20018;-74
2023/09/08 00:34:53;;;;;;;5.93;4.45;;;23.10;65.90;;;;;;5015784;28;20053;-74
2023/09/08 00:37:19;;;;;;;6.50;3.72;;;23.10;66.30;;;;;;5015826;28;20018;-74
2023/09/08 00:39:44;;;;;;;6.10;4.22;;;23.10;66.50;;;;;;5015756;28;20064;-74
2023/09/08 00:42:10;;;;;;;5.50;3.88;;;23.10;66.50;;;;;;5015629;28;20072;-74
2023/09/08 00:44:36;;;;;;;5.93;4.13;;;23.10;66.60;;;;;;5015519;28;20492;-74
2023/09/08 00:47:02;;;;;;;8.00;3.70;;;23.10;66.90;;;;;;5015178;28;20037;-74
2023/09/08 00:49:28;;;;;;;4.63;3.95;;;23.00;67.00;;;;;;5015538;28;20049;-74
2023/09/08 00:51:54;;;;;;;7.88;4.20;;;23.00;67.00;;;;;;5015557;28;20029;-73
2023/09/08 00:54:20;;;;;;;7.13;4.00;;;23.00;67.20;;;;;;5015609;28;20029;-74
2023/09/08 00:56:48;;;;;;;6.43;4.10;;;23.00;67.10;;;;;;5015148;28;20014;-73
2023/09/08 00:59:14;;;;;;;8.23;4.35;;;22.90;67.30;;;;;;5012361;28;20079;-74
2023/09/08 01:01:40;;;;;;;7.38;4.60;;;22.90;67.30;;;;;;5012458;28;20140;-74
2023/09/08 01:04:05;;;;;;;7.43;4.13;;;22.90;67.60;;;;;;5012880;28;20034;-73
2023/09/08 01:06:32;;;;;;;7.40;4.05;;;22.90;67.70;;;;;;5014668;28;20401;-74
2023/09/08 01:08:59;;;;;;;5.95;4.03;;;22.90;67.60;;;;;;5014848;28;20038;-75
2023/09/08 01:11:26;;;;;;;6.22;3.97;;;22.90;67.60;;;;;;5014335;28;20050;-74
2023/09/08 01:13:51;;;;;;;6.25;3.80;;;22.90;67.80;;;;;;5014810;28;20084;-74
2023/09/08 01:16:17;;;;;;;8.18;4.10;;;22.90;67.90;;;;;;5014907;28;20034;-74
2023/09/08 01:18:48;;;;;;;6.47;4.05;;;22.90;67.80;;;;;;5014835;28;20040;-74
2023/09/08 01:21:39;;;;;;;5.93;3.83;;;22.90;67.80;;;;;;5014546;28;20022;-73
2023/09/08 01:24:39;;;;;;;8.10;3.97;;;22.90;68.00;;;;;;5014557;28;20037;-74
2023/09/08 01:27:07;;;;;;;12.55;3.78;;;22.80;68.20;;;;;;4991317;28;20037;-74
2023/09/08 01:29:33;;;;;;;5.70;4.18;;;22.80;68.10;;;;;;5013076;28;20417;-75
2023/09/08 01:32:00;;;;;;;9.07;4.20;;;22.70;68.10;;;;;;5014396;28;20022;-74
2023/09/08 01:34:26;;;;;;;4.10;3.70;;;22.70;68.10;;;;;;5014478;28;20033;-74
2023/09/08 01:36:52;;;;;;;5.55;4.38;;;22.70;67.90;;;;;;5013008;28;20022;-74
2023/09/08 01:39:18;;;;;;;8.55;4.18;;;22.70;67.80;;;;;;5014299;28;20468;-75
2023/09/08 01:41:43;;;;;;;5.53;4.00;;;22.70;67.80;;;;;;5014507;28;20084;-75
2023/09/08 01:44:11;;;;;;;10.65;5.10;;;22.70;67.60;;;;;;5013301;28;20034;-73
2023/09/08 01:46:38;;;;;;;4.78;3.90;;;22.70;67.40;;;;;;5029557;28;20030;-73
2023/09/08 01:49:04;;;;;;;5.82;4.10;;;22.70;67.10;;;;;;5014205;28;20355;-73
2023/09/08 01:51:29;;;;;;;5.18;3.75;;;22.70;66.90;;;;;;5013120;28;20072;-74
2023/09/08 01:53:55;;;;;;;8.30;4.10;;;22.70;66.90;;;;;;5014134;28;20030;-74
2023/09/08 01:56:22;;;;;;;5.88;3.90;;;22.70;66.90;;;;;;5014296;28;20022;-74
2023/09/08 01:58:48;;;;;;;5.82;3.90;;;22.70;66.90;;;;;;5014210;28;20113;-74
2023/09/08 02:01:14;;;;;;;6.82;4.25;;;22.70;67.00;;;;;;5013825;28;20517;-74
2023/09/08 02:03:39;;;;;;;6.93;3.85;;;22.70;67.00;;;;;;5014047;28;20064;-73
2023/09/08 02:06:05;;;;;;;7.30;4.18;;;22.70;67.10;;;;;;5013979;28;20474;-74
2023/09/08 02:08:31;;;;;;;5.53;3.70;;;22.60;66.90;;;;;;5013977;28;20113;-74
2023/09/08 02:10:57;;;;;;;6.63;4.25;;;22.60;67.00;;;;;;5013221;28;20124;-74
2023/09/08 02:13:22;;;;;;;6.93;4.22;;;22.60;66.90;;;;;;5013828;28;20018;-74
2023/09/08 02:15:48;;;;;;;9.15;3.47;;;22.60;67.00;;;;;;5013667;28;20022;-74
2023/09/08 02:18:14;;;;;;;5.07;3.88;;;22.60;67.00;;;;;;5013783;28;20505;-74
2023/09/08 02:20:40;;;;;;;5.68;4.00;;;22.60;67.10;;;;;;5013635;28;20355;-74
2023/09/08 02:23:06;;;;;;;7.20;3.67;;;22.60;67.00;;;;;;5013408;28;20030;-75
2023/09/08 02:25:32;;;;;;;9.07;4.10;;;22.60;66.80;;;;;;5012481;28;20048;-74
2023/09/08 02:27:58;;;;;;;6.63;3.92;;;22.60;66.70;;;;;;5013632;28;20478;-74
2023/09/08 02:30:24;;;;;;;5.82;4.28;;;22.60;66.70;;;;;;5013602;28;20390;-74
2023/09/08 02:32:50;;;;;;;7.43;4.78;;;22.60;66.70;;;;;;5013931;28;20026;-73
2023/09/08 02:35:16;;;;;;;6.60;3.72;;;22.50;66.90;;;;;;5013620;28;20026;-73
2023/09/08 02:37:41;;;;;;;5.97;3.95;;;22.50;66.80;;;;;;5013659;28;20030;-74
2023/09/08 02:40:07;;;;;;;4.32;3.55;;;22.60;66.90;;;;;;5013633;28;20022;-73
2023/09/08 02:42:33;;;;;;;8.02;4.25;;;22.50;67.00;;;;;;5013705;28;20022;-74
2023/09/08 02:45:00;;;;;;;4.93;4.20;;;22.60;67.40;;;;;;5013382;28;20025;-74
2023/09/08 02:47:25;;;;;;;5.80;3.95;;;22.50;67.40;;;;;;5013331;28;20052;-74
2023/09/08 02:49:51;;;;;;;5.30;4.18;;;22.60;67.40;;;;;;5013110;28;20045;-74
2023/09/08 02:52:19;;;;;;;5.93;3.90;;;22.50;67.30;;;;;;5013201;28;20022;-74
2023/09/08 02:54:45;;;;;;;6.55;3.80;;;22.50;67.40;;;;;;5013191;28;20036;-73
2023/09/08 02:57:11;;;;;;;13.55;3.83;;;22.50;67.40;;;;;;5013053;28;20026;-74
2023/09/08 02:59:37;;;;;;;9.15;4.03;;;22.50;67.10;;;;;;5028693;28;20030;-73
2023/09/08 03:02:03;;;;;;;7.93;3.95;;;22.50;66.90;;;;;;5013325;28;20010;-73
2023/09/08 03:04:29;;;;;;;5.13;3.63;;;22.50;66.50;;;;;;5011225;28;20116;-74
2023/09/08 03:06:54;;;;;;;5.38;3.80;;;22.50;66.20;;;;;;5010401;28;20445;-74
2023/09/08 03:09:20;;;;;;;5.18;3.80;;;22.50;66.00;;;;;;5010022;28;20045;-74
2023/09/08 03:11:46;;;;;;;10.15;4.25;;;22.50;65.80;;;;;;5013276;28;20143;-73
2023/09/08 03:14:12;;;;;;;5.50;3.85;;;22.60;65.60;;;;;;5012888;28;20133;-73
2023/09/08 03:16:37;;;;;;;11.43;4.00;;;22.50;65.50;;;;;;5012917;28;20049;-73
2023/09/08 03:19:03;;;;;;;8.40;4.20;;;22.60;65.60;;;;;;5012686;28;20022;-73
2023/09/08 03:21:29;;;;;;;7.05;3.70;;;22.60;65.60;;;;;;5014105;28;20030;-73
2023/09/08 03:23:55;;;;;;;5.78;3.75;;;22.60;65.50;;;;;;5016920;28;20025;-74
2023/09/08 03:26:20;;;;;;;6.95;3.60;;;22.50;65.30;;;;;;5016962;28;20032;-73
2023/09/08 03:28:46;;;;;;;8.63;3.78;;;22.60;65.40;;;;;;5016799;28;20096;-74
2023/09/08 03:31:12;;;;;;;6.78;3.67;;;22.60;65.40;;;;;;5016736;28;20378;-75
2023/09/08 03:33:38;;;;;;;5.38;4.03;;;22.60;65.40;;;;;;5016608;28;20071;-74
2023/09/08 03:36:04;;;;;;;10.90;4.18;;;22.60;65.40;;;;;;5016714;28;20520;-73
2023/09/08 03:38:30;;;;;;;5.22;3.60;;;22.50;65.50;;;;;;5016687;28;20104;-74
2023/09/08 03:40:56;;;;;;;6.03;4.00;;;22.40;65.90;;;;;;5016603;28;20030;-73
2023/09/08 03:43:21;;;;;;;7.63;4.00;;;22.50;66.60;;;;;;5016693;28;20087;-74
2023/09/08 03:45:47;;;;;;;9.98;4.15;;;22.40;66.50;;;;;;5016669;28;20084;-74
2023/09/08 03:48:13;;;;;;;5.80;4.13;;;22.40;66.70;;;;;;5031682;28;20030;-73
2023/09/08 03:50:39;;;;;;;7.60;3.92;;;22.30;66.80;;;;;;5016360;28;20061;-73
2023/09/08 03:53:04;;;;;;;5.63;4.13;;;22.30;67.50;;;;;;5016435;28;20366;-74
2023/09/08 03:55:30;;;;;;;7.20;4.30;;;22.30;68.40;;;;;;5016546;28;20027;-75
2023/09/08 03:57:57;;;;;;;5.00;3.67;;;22.30;68.50;;;;;;5016527;28;20102;-74
2023/09/08 04:00:22;;;;;;;6.70;4.40;;;22.30;68.40;;;;;;5014979;28;20026;-74
2023/09/08 04:02:49;;;;;;;7.90;4.13;;;22.30;68.20;;;;;;5016158;28;20061;-75
2023/09/08 04:05:18;;;;;;;5.65;3.58;;;22.20;68.00;;;;;;5016171;28;20030;-74
2023/09/08 04:07:47;;;;;;;4.28;3.70;;;22.20;68.20;;;;;;5016100;28;20022;-74
2023/09/08 04:10:13;;;;;;;7.47;3.80;;;22.20;68.50;;;;;;5015891;28;20104;-74
2023/09/08 04:12:40;;;;;;;10.20;4.15;;;22.20;68.80;;;;;;5016154;28;20022;-73
2023/09/08 04:15:06;;;;;;;5.70;3.95;;;22.20;68.50;;;;;;5016091;28;20032;-73
2023/09/08 04:17:32;;;;;;;5.90;3.75;;;22.20;68.50;;;;;;5015888;28;20018;-73
2023/09/08 04:19:57;;;;;;;8.77;4.38;;;22.10;68.40;;;;;;5016172;28;20088;-74
2023/09/08 04:22:23;;;;;;;10.75;4.65;;;22.10;68.30;;;;;;5014775;28;20417;-75
2023/09/08 04:24:49;;;;;;;7.18;3.95;;;22.10;68.50;;;;;;5015969;28;20045;-74
2023/09/08 04:27:15;;;;;;;7.35;4.15;;;22.10;68.80;;;;;;5015687;28;20026;-74
2023/09/08 04:29:41;;;;;;;7.78;4.40;;;22.00;68.90;;;;;;5015978;28;20103;-74
2023/09/08 04:32:08;;;;;;;7.78;4.13;;;22.00;68.80;;;;;;5015730;28;20034;-74
2023/09/08 04:34:42;;;;;;;12.70;4.13;;;22.00;68.60;;;;;;5015047;28;20030;-73
2023/09/08 04:37:08;;;;;;;8.93;3.90;;;22.00;68.60;;;;;;5015698;28;20076;-73
2023/09/08 04:39:34;;;;;;;5.63;4.13;;;22.00;68.80;;;;;;5015570;28;20022;-73
2023/09/08 04:42:01;;;;;;;5.70;4.25;;;21.90;68.90;;;;;;5015427;28;20022;-74
2023/09/08 04:44:27;;;;;;;7.40;3.70;;;22.00;68.90;;;;;;5015072;28;20501;-73
2023/09/08 04:46:53;;;;;;;7.97;4.22;;;22.00;68.60;;;;;;5015215;28;20033;-73
2023/09/08 04:49:19;;;;;;;6.65;3.70;;;21.90;68.20;;;;;;5015223;28;20042;-74
2023/09/08 04:51:45;;;;;;;8.73;4.82;;;22.00;68.20;;;;;;5015514;28;20351;-74
2023/09/08 04:54:10;;;;;;;7.25;3.63;;;22.00;68.00;;;;;;5015435;28;20525;-75
2023/09/08 04:56:38;;;;;;;5.10;3.75;;;22.00;68.00;;;;;;5015100;28;20029;-74
2023/09/08 04:59:03;;;;;;;12.30;4.18;;;22.00;67.40;;;;;;5013755;28;20428;-73
2023/09/08 05:01:32;;;;;;;5.25;3.70;;;22.00;67.20;;;;;;5015203;28;20018;-73
2023/09/08 05:03:59;;;;;;;6.25;3.97;;;22.10;67.40;;;;;;5015340;28;20037;-73
2023/09/08 05:06:25;;;;;;;6.95;4.20;;;22.10;67.20;;;;;;5013895;28;20030;-73
2023/09/08 05:08:51;;;;;;;6.53;4.05;;;22.20;67.00;;;;;;5015069;28;20045;-74
2023/09/08 05:11:18;;;;;;;8.95;4.25;;;22.20;66.90;;;;;;5014760;28;20537;-74
2023/09/08 05:13:45;;;;;;;9.32;4.50;;;22.20;67.10;;;;;;5014816;28;20076;-74
2023/09/08 05:16:12;;;;;;;6.80;3.95;;;22.20;67.20;;;;;;5014969;28;20537;-74
2023/09/08 05:18:41;;;;;;;9.40;4.28;;;22.20;67.30;;;;;;5014995;28;20104;-74
2023/09/08 05:21:07;;;;;;;7.10;4.13;;;22.20;67.60;;;;;;5013239;28;20394;-76
2023/09/08 05:23:33;;;;;;;5.90;4.25;;;22.30;68.00;;;;;;5014811;28;20030;-74
2023/09/08 05:26:00;;;;;;;7.38;4.72;;;22.30;68.50;;;;;;5014783;28;20478;-74
2023/09/08 05:28:26;;;;;;;9.13;5.00;;;22.20;68.80;;;;;;5014621;28;20493;-74
2023/09/08 05:30:52;;;;;;;8.77;4.47;;;22.30;69.00;;;;;;5014806;28;20032;-74
2023/09/08 05:33:18;;;;;;;9.15;4.55;;;22.30;69.40;;;;;;5014870;28;20026;-74
2023/09/08 05:35:45;;;;;;;7.15;4.65;;;22.30;69.60;;;;;;5014406;28;20367;-74
2023/09/08 05:38:11;;;;;;;11.02;4.45;;;22.30;69.50;;;;;;5014612;28;20493;-74
2023/09/08 05:40:37;;;;;;;5.00;4.15;;;22.30;69.30;;;;;;5014516;28;20084;-74
2023/09/08 05:43:04;;;;;;;5.55;3.90;;;22.30;69.60;;;;;;5014529;28;20030;-74
2023/09/08 05:45:32;;;;;;;10.48;4.88;;;22.30;69.90;;;;;;5013292;28;20029;-74
2023/09/08 05:47:58;;;;;;;6.07;4.20;;;22.30;70.10;;;;;;5014368;28;20030;-74
2023/09/08 05:50:23;;;;;;;6.63;4.32;;;22.30;69.80;;;;;;5012815;28;20079;-74
2023/09/08 05:52:51;;;;;;;9.35;3.83;;;22.30;69.40;;;;;;5014040;28;20021;-74
2023/09/08 05:55:17;;;;;;;7.22;4.03;;;22.40;69.60;;;;;;5013905;28;20033;-75
2023/09/08 05:57:43;;;;;;;15.70;4.00;;;22.40;69.00;;;;;;5014104;28;20056;-74
2023/09/08 06:00:09;;;;;;;6.78;3.92;;;22.50;68.60;;;;;;5014183;28;20050;-75
2023/09/08 06:02:35;;;;;;;9.57;4.25;;;22.50;68.20;;;;;;5014087;28;20030;-75
2023/09/08 06:05:01;;;;;;;5.88;3.90;;;22.60;68.00;;;;;;5014205;28;20022;-74
2023/09/08 06:07:26;;;;;;;12.95;4.07;;;22.60;67.60;;;;;;5014060;28;20390;-74
2023/09/08 06:09:52;;;;;;;8.00;4.20;;;22.60;67.40;;;;;;5013716;28;20109;-74
2023/09/08 06:12:18;;;;;;;5.72;3.63;;;22.70;67.50;;;;;;5013972;28;20026;-75
2023/09/08 06:14:43;;;;;;;10.07;3.97;;;22.70;67.40;;;;;;5013887;28;20052;-74
2023/09/08 06:17:10;;;;;;;7.30;3.60;;;22.70;67.50;;;;;;5013795;28;20072;-74
2023/09/08 06:19:36;;;;;;;10.57;3.58;;;22.80;67.50;;;;;;5013931;28;20025;-74
2023/09/08 06:22:02;;;;;;;8.25;4.28;;;22.90;67.60;;;;;;5013798;28;20032;-74
2023/09/08 06:24:27;;;;;;;6.15;3.95;;;22.90;68.10;;;;;;5013645;28;20025;-74
2023/09/08 06:26:53;;;;;;;5.85;3.85;;;22.90;68.10;;;;;;5013732;28;20101;-74
2023/09/08 06:29:19;;;;;;;6.05;4.35;;;22.90;67.80;;;;;;5013750;28;20536;-74
2023/09/08 06:31:45;;;;;;;8.38;4.13;;;23.00;67.50;;;;;;5012351;28;20025;-74
2023/09/08 06:34:10;;;;;;;5.97;3.80;;;23.00;67.20;;;;;;5013496;28;20030;-74
2023/09/08 06:36:36;;;;;;;8.77;3.88;;;23.00;67.00;;;;;;5013501;28;20390;-74
2023/09/08 06:39:02;;;;;;;7.18;4.25;;;23.10;66.80;;;;;;5013416;28;20037;-74
2023/09/08 06:41:28;;;;;;;9.07;3.90;;;23.10;66.60;;;;;;5013440;28;20033;-74
2023/09/08 06:43:54;;;;;;;6.65;4.43;;;23.10;66.60;;;;;;5013311;28;20109;-74
2023/09/08 06:46:20;;;;;;;11.45;4.35;;;23.10;66.70;;;;;;5013554;28;20516;-74
2023/09/08 06:48:45;;;;;;;7.10;3.90;;;23.20;67.90;;;;;;5013410;28;20477;-74
2023/09/08 06:51:11;;;;;;;7.55;4.13;;;23.20;67.60;;;;;;5013374;28;20105;-74
2023/09/08 06:53:37;;;;;;;18.10;4.60;;;23.30;67.70;;;;;;5013228;28;20418;-74
2023/09/08 06:56:03;;;;;;;9.30;4.20;;;23.30;68.70;;;;;;5012920;28;20045;-74
2023/09/08 06:58:29;;;;;;;5.88;3.75;;;23.30;68.90;;;;;;5013390;28;20033;-74
2023/09/08 07:00:54;;;;;;;10.50;4.03;;;23.40;68.60;;;;;;5013163;28;20164;-74
2023/09/08 07:03:22;;;;;;;12.80;4.20;;;23.40;68.50;;;;;;5013048;28;20049;-74
2023/09/08 07:05:50;;;;;;;8.18;4.00;;;23.40;68.50;;;;;;5012884;28;20073;-74
2023/09/08 07:08:17;;;;;;;15.32;4.43;;;23.50;68.40;;;;;;5012843;28;20528;-74
2023/09/08 07:10:44;;;;;;;7.85;4.15;;;23.50;68.50;;;;;;5013221;28;20064;-74
2023/09/08 07:13:10;;;;;;;5.70;4.13;;;23.50;68.40;;;;;;5013191;28;20479;-74
2023/09/08 07:15:36;;;;;;;9.10;3.60;;;23.60;68.00;;;;;;5012951;28;20486;-74
2023/09/08 07:18:02;;;;;;;6.25;3.58;;;23.70;65.90;;;;;;5012964;28;20101;-74
2023/09/08 07:20:28;;;;;;;10.50;4.25;;;23.70;64.70;;;;;;5013032;28;20480;-74
2023/09/08 07:22:54;;;;;;;11.88;4.03;;;23.80;64.60;;;;;;5012928;28;20022;-74
2023/09/08 07:25:20;;;;;;;8.75;3.97;;;23.80;64.70;;;;;;5013069;28;20441;-74
2023/09/08 07:27:45;;;;;;;8.68;4.25;;;23.90;64.60;;;;;;5012568;28;20026;-74
2023/09/08 07:30:12;;;;;;;4.72;3.90;;;23.90;64.40;;;;;;5012860;28;20038;-75
2023/09/08 07:32:38;;;;;;;11.55;4.40;;;24.00;64.40;;;;;;5013060;28;20045;-74
2023/09/08 07:35:04;;;;;;;10.93;3.97;;;24.00;64.80;;;;;;5012926;28;20057;-74
2023/09/08 07:37:29;;;;;;;7.40;3.70;;;24.00;64.90;;;;;;5012588;28;20018;-75
2023/09/08 07:39:55;;;;;;;4.85;3.70;;;24.10;65.20;;;;;;5012973;28;20526;-75
2023/09/08 07:42:21;;;;;;;6.60;4.15;;;24.10;65.30;;;;;;5012827;28;20478;-74
2023/09/08 07:44:47;;;;;;;9.57;4.20;;;24.20;64.30;;;;;;5028278;28;20068;-74
2023/09/08 07:47:13;;;;;;;8.82;4.40;;;24.20;63.70;;;;;;5012785;28;20486;-74
2023/09/08 07:49:39;;;;;;;5.80;4.00;;;24.30;62.70;;;;;;5012529;28;20033;-74
2023/09/08 07:52:07;;;;;;;5.15;3.97;;;24.30;62.50;;;;;;5012286;28;20033;-74
2023/09/08 07:54:33;;;;;;;11.20;4.53;;;24.30;62.60;;;;;;5012769;28;20026;-75
2023/09/08 07:56:58;;;;;;;7.43;3.75;;;24.30;62.40;;;;;;5013011;28;20447;-74
2023/09/08 07:59:24;;;;;;;9.65;4.50;;;24.40;62.40;;;;;;5012613;28;20022;-74
2023/09/08 08:01:50;;;;;;;8.60;4.22;;;24.50;63.20;;;;;;5012633;28;20104;-74
2023/09/08 08:04:16;;;;;;;10.30;3.75;;;24.50;63.10;;;;;;5012638;28;20034;-74
2023/09/08 08:06:42;;;;;;;12.65;3.83;;;24.50;63.20;;;;;;5012428;28;20536;-74
2023/09/08 08:09:07;;;;;;;5.90;4.10;;;24.60;63.60;;;;;;5014443;28;20045;-74
2023/09/08 08:11:33;;;;;;;7.40;3.85;;;24.60;63.70;;;;;;5016078;28;20042;-74
2023/09/08 08:13:59;;;;;;;12.02;3.83;;;24.70;62.60;;;;;;5016237;28;20037;-74
2023/09/08 08:16:25;;;;;;;7.22;4.40;;;24.70;62.20;;;;;;5016131;28;20026;-74
2023/09/08 08:18:50;;;;;;;6.28;3.55;;;24.80;62.80;;;;;;5016135;28;20378;-74
2023/09/08 08:21:16;;;;;;;7.65;3.83;;;24.80;61.20;;;;;;5015742;28;20109;-74
2023/09/08 08:23:42;;;;;;;9.77;3.70;;;24.90;62.00;;;;;;5015700;28;20057;-74
2023/09/08 08:26:07;;;;;;;6.10;3.67;;;24.90;61.00;;;;;;5015932;28;20521;-74
2023/09/08 08:28:33;;;;;;;7.50;3.70;;;25.00;61.00;;;;;;5015765;28;20084;-74
2023/09/08 08:30:59;;;;;;;5.70;4.07;;;25.00;62.30;;;;;;5015760;28;20038;-74
2023/09/08 08:33:25;;;;;;;9.80;4.13;;;25.00;62.60;;;;;;5015799;28;20385;-74
2023/09/08 08:35:53;;;;;;;11.02;3.30;;;25.10;62.80;;;;;;5014415;28;20417;-74
2023/09/08 08:38:19;;;;;;;4.82;3.63;;;25.20;62.90;;;;;;5015539;28;20026;-74
2023/09/08 08:40:44;;;;;;;6.68;3.42;;;25.20;63.40;;;;;;5015632;28;20032;-74
2023/09/08 08:43:11;;;;;;;7.65;3.88;;;25.30;62.80;;;;;;5015378;28;20029;-74
2023/09/08 08:45:39;;;;;;;7.30;3.40;;;25.30;62.20;;;;;;5015623;28;20470;-74
2023/09/08 08:48:06;;;;;;;9.07;3.60;;;25.40;61.90;;;;;;5015448;28;20018;-74
2023/09/08 08:50:36;;;;;;;9.05;3.63;;;25.40;61.50;;;;;;5014953;28;20044;-75
2023/09/08 08:53:02;;;;;;;11.00;3.92;;;25.50;61.90;;;;;;5015207;28;20030;-74
2023/09/08 08:55:29;;;;;;;9.88;3.90;;;25.60;62.10;;;;;;5015560;28;20154;-74
2023/09/08 08:58:03;;;;;;;6.97;3.90;;;25.60;61.40;;;;;;5015360;28;20053;-75
2023/09/08 09:00:29;;;;;;;5.03;3.53;;;25.70;61.90;;;;;;5014168;28;20036;-74
2023/09/08 09:02:57;;;;;;;9.65;3.38;;;25.70;61.50;;;;;;5015037;28;20056;-74
2023/09/08 09:05:24;;;;;;;11.52;3.38;;;25.80;60.70;;;;;;5014993;28;20032;-75
2023/09/08 09:07:51;;;;;;;7.05;3.40;;;25.90;60.30;;;;;;5015124;28;20493;-74
2023/09/08 09:10:17;;;;;;;6.45;3.35;;;25.90;60.60;;;;;;5014973;28;20100;-74
2023/09/08 09:12:43;;;;;;;4.82;3.35;;;26.00;61.00;;;;;;5014832;28;20026;-74
2023/09/08 09:15:09;;;;;;;7.40;3.17;;;26.00;61.60;;;;;;5015089;28;20040;-75
2023/09/08 09:17:35;;;;;;;6.65;3.78;;;26.10;59.80;;;;;;5014957;28;20437;-75
2023/09/08 09:20:20;;;;;;;6.95;3.47;;;26.10;59.40;;;;;;5013450;28;20017;-74
2023/09/08 09:22:47;;;;;;;7.10;3.25;;;26.20;59.40;;;;;;5014990;28;20537;-74
2023/09/08 09:25:30;;;;;;;3.40;3.03;;;26.20;58.80;;;;;;5014880;28;20414;-75
2023/09/08 09:27:58;;;;;;;7.72;3.53;;;26.30;58.40;;;;;;5014752;28;20487;-74
2023/09/08 09:30:25;;;;;;;13.60;3.17;;;26.40;58.40;;;;;;5014616;28;20088;-74
2023/09/08 09:33:01;;;;;;;12.90;3.40;;;26.50;57.40;;;;;;5014921;28;20022;-74
2023/09/08 09:35:44;;;;;;;6.82;3.35;;;26.50;57.50;;;;;;5014532;28;20084;-74
2023/09/08 09:38:11;;;;;;;5.07;2.80;;;26.60;56.50;;;;;;5014378;28;20089;-75
2023/09/08 09:40:37;;;;;;;8.65;3.40;;;26.60;57.30;;;;;;5014381;28;20032;-74
2023/09/08 09:43:04;;;;;;;7.40;3.03;;;26.70;57.80;;;;;;5014283;28;20478;-74
2023/09/08 09:45:32;;;;;;;7.53;3.22;;;26.70;57.10;;;;;;5014408;28;20018;-74
2023/09/08 09:47:58;;;;;;;4.15;3.30;;;26.80;56.20;;;;;;5013215;28;20029;-74
2023/09/08 09:50:34;;;;;;;7.05;3.55;;;26.80;56.00;;;;;;5014255;28;20034;-74
2023/09/08 09:53:07;;;;;;;12.38;3.80;;;26.90;57.10;;;;;;5014234;28;20030;-74
2023/09/08 09:55:36;;;;;;;6.28;3.38;;;27.00;55.80;;;;;;5014414;28;20084;-74
2023/09/08 09:58:06;;;;;;;10.13;3.42;;;27.00;55.10;;;;;;5014151;28;20074;-74
2023/09/08 10:00:33;;;;;;;12.23;3.78;;;27.00;55.30;;;;;;5014127;28;20014;-74
2023/09/08 10:02:59;;;;;;;7.45;3.40;;;27.10;54.40;;;;;;5014088;28;20034;-74
2023/09/08 10:05:25;;;;;;;4.93;3.13;;;27.20;54.90;;;;;;5014105;28;20129;-74
2023/09/08 10:07:51;;;;;;;12.85;3.53;;;27.20;55.10;;;;;;5013772;28;20486;-74
2023/09/08 10:10:18;;;;;;;7.57;3.40;;;27.20;54.90;;;;;;5013755;28;20494;-74
2023/09/08 10:12:46;;;;;;;9.40;3.30;;;27.30;55.50;;;;;;5014191;28;20429;-74
2023/09/08 10:15:13;;;;;;;5.07;3.13;;;27.30;53.80;;;;;;5013982;28;20037;-74
2023/09/08 10:17:43;;;;;;;13.20;3.30;;;27.40;54.70;;;;;;5012525;28;20084;-74
2023/09/08 10:20:11;;;;;;;4.57;2.80;;;27.40;54.20;;;;;;5012516;28;20034;-75
2023/09/08 10:22:42;;;;;;;4.85;3.28;;;27.50;54.30;;;;;;5013780;28;20470;-74
2023/09/08 10:25:12;;;;;;;4.45;3.33;;;27.50;54.10;;;;;;5012527;28;20049;-74
2023/09/08 10:27:39;;;;;;;7.60;3.75;;;27.60;53.80;;;;;;5013467;28;20485;-75
2023/09/08 10:30:07;;;;;;;11.98;3.15;;;27.60;53.80;;;;;;5012179;28;20042;-74
2023/09/08 10:32:35;;;;;;;7.40;3.13;;;27.70;53.80;;;;;;5012870;28;20025;-75
2023/09/08 10:35:02;;;;;;;9.43;4.00;;;27.70;52.50;;;;;;5013446;28;20028;-74
2023/09/08 10:37:32;;;;;;;13.52;3.67;;;27.70;51.80;;;;;;5012205;28;20083;-74
2023/09/08 10:40:21;;;;;;;5.97;3.17;;;27.80;53.20;;;;;;5013536;28;20038;-74
2023/09/08 10:42:48;;;;;;;3.85;3.10;;;27.80;53.00;;;;;;5013420;28;20010;-75
2023/09/08 10:45:20;;;;;;;11.93;4.07;;;27.90;52.40;;;;;;5013381;28;20500;-75
2023/09/08 10:47:46;;;;;;;6.53;3.00;;;27.90;52.50;;;;;;5013684;28;20068;-74
2023/09/08 10:50:18;;;;;;;8.27;3.30;;;27.90;52.00;;;;;;5013351;28;20042;-74
2023/09/08 10:52:44;;;;;;;5.22;3.00;;;28.00;53.30;;;;;;5013338;28;20026;-75
2023/09/08 10:55:15;;;;;;;7.20;2.80;;;28.10;52.90;;;;;;5013197;28;20018;-74
2023/09/08 10:57:45;;;;;;;5.35;3.35;;;28.10;52.60;;;;;;5013264;28;20041;-74
2023/09/08 11:00:17;;;;;;;4.95;2.97;;;28.10;52.00;;;;;;5013271;28;20108;-74
2023/09/08 11:02:54;;;;;;;6.93;3.10;;;28.20;52.00;;;;;;5013086;28;20034;-74
2023/09/08 11:05:21;;;;;;;12.10;3.60;;;28.20;51.70;;;;;;5013285;28;20425;-74
2023/09/08 11:07:52;;;;;;;10.48;3.85;;;28.30;52.70;;;;;;5013138;28;20429;-75
2023/09/08 11:10:18;;;;;;;10.77;3.28;;;28.40;50.50;;;;;;5012931;28;20708;-74
2023/09/08 11:12:44;;;;;;;12.73;3.40;;;28.40;50.60;;;;;;5011843;28;20109;-74
2023/09/08 11:15:10;;;;;;;9.00;2.90;;;28.40;51.00;;;;;;5010356;28;20026;-74
2023/09/08 11:17:41;;;;;;;10.48;3.08;;;28.50;51.70;;;;;;5009050;28;20030;-74
2023/09/08 11:20:09;;;;;;;7.32;3.05;;;28.50;51.30;;;;;;5013304;28;20045;-74
2023/09/08 11:22:35;;;;;;;6.80;3.15;;;28.60;50.30;;;;;;5013056;28;20022;-74
2023/09/08 11:25:04;;;;;;;6.47;2.92;;;28.60;49.10;;;;;;5013029;28;20033;-74
2023/09/08 11:27:31;;;;;;;7.55;3.38;;;28.60;49.40;;;;;;5012980;28;20026;-74
2023/09/08 11:29:57;;;;;;;6.88;3.22;;;28.70;49.80;;;;;;5012985;28;20046;-74
2023/09/08 11:32:23;;;;;;;4.05;3.00;;;28.70;48.20;;;;;;5012823;28;20065;-74
2023/09/08 11:34:49;;;;;;;5.70;2.80;;;28.70;49.50;;;;;;5013002;28;20132;-74
2023/09/08 11:37:18;;;;;;;11.45;3.00;;;28.80;48.30;;;;;;5012968;28;20097;-74
2023/09/08 11:39:45;;;;;;;6.22;3.20;;;28.80;49.80;;;;;;5009592;28;20168;-75
2023/09/08 11:42:13;;;;;;;8.25;3.05;;;28.90;48.70;;;;;;5010125;28;20652;-75
2023/09/08 11:44:40;;;;;;;9.68;3.22;;;28.90;48.40;;;;;;5014113;28;20041;-74
2023/09/08 11:47:10;;;;;;;6.70;2.53;;;29.00;48.60;;;;;;5016466;28;20025;-75
2023/09/08 11:49:37;;;;;;;6.65;3.13;;;29.00;49.20;;;;;;5016380;28;20113;-74
2023/09/08 11:52:05;;;;;;;6.53;3.00;;;29.00;47.80;;;;;;5016145;28;20360;-74
2023/09/08 11:54:35;;;;;;;11.77;3.33;;;29.00;48.10;;;;;;5016046;28;20033;-74
2023/09/08 11:57:11;;;;;;;9.32;3.15;;;29.10;47.60;;;;;;5016380;28;20026;-74
2023/09/08 11:59:39;;;;;;;6.65;2.88;;;29.10;48.10;;;;;;5014555;28;20100;-74
2023/09/08 12:02:06;;;;;;;8.00;2.90;;;29.20;48.20;;;;;;5015879;28;20026;-74
2023/09/08 12:04:36;;;;;;;6.65;3.05;;;29.20;47.50;;;;;;5016307;28;20478;-74
2023/09/08 12:07:04;;;;;;;7.57;2.90;;;29.20;46.20;;;;;;5016145;28;20018;-75
2023/09/08 12:09:41;;;;;;;5.30;2.75;;;29.30;47.80;;;;;;5016161;28;20488;-75
2023/09/08 12:12:12;;;;;;;6.68;2.58;;;29.30;47.40;;;;;;5016331;28;20470;-75
2023/09/08 12:14:43;;;;;;;10.88;2.88;;;29.40;47.90;;;;;;5015848;28;20044;-74
2023/09/08 12:17:10;;;;;;;3.55;2.95;;;29.40;46.90;;;;;;5016109;28;20084;-75
2023/09/08 12:19:40;;;;;;;5.93;3.17;;;29.40;46.60;;;;;;5016180;28;20030;-75
2023/09/08 12:22:08;;;;;;;4.18;3.05;;;29.50;47.50;;;;;;5016121;28;20485;-75
2023/09/08 12:24:58;;;;;;;13.98;2.80;;;29.50;47.70;;;;;;5016042;28;20018;-74
2023/09/08 12:27:26;;;;;;;4.65;3.10;;;29.50;47.50;;;;;;5015813;28;20022;-75
2023/09/08 12:30:00;;;;;;;6.63;3.03;;;29.60;47.70;;;;;;5015570;28;20034;-75
2023/09/08 12:32:29;;;;;;;5.25;2.95;;;29.60;47.10;;;;;;5015687;28;20056;-74
2023/09/08 12:34:55;;;;;;;6.53;2.80;;;29.70;47.70;;;;;;5015559;28;20022;-75
2023/09/08 12:37:28;;;;;;;14.63;3.10;;;29.60;47.80;;;;;;5015524;28;20084;-75
2023/09/08 12:39:55;;;;;;;6.18;3.10;;;29.70;48.20;;;;;;5015705;28;20018;-75
2023/09/08 12:42:21;;;;;;;6.75;3.05;;;29.70;46.90;;;;;;5015509;28;20022;-75
2023/09/08 12:44:48;;;;;;;7.60;2.80;;;29.70;47.40;;;;;;5015585;28;20033;-75